createdAt,value
2022-12-16T00:01:13.888Z,60.23
2022-12-16T00:03:44.218Z,59.88
2022-12-16T00:06:12.299Z,60.31
2022-12-16T00:08:41.893Z,60.68
2022-12-16T00:11:10.822Z,60.85
2022-12-16T00:13:41.256Z,60.38
2022-12-16T00:16:12.765Z,61.01
2022-12-16T00:18:41.690Z,60.72
2022-12-16T00:21:10.339Z,60.89
2022-12-16T00:23:39.381Z,60.64
2022-12-16T00:26:09.509Z,60.75
2022-12-16T00:28:38.047Z,60.81
2022-12-16T00:31:11.066Z,60.35
2022-12-16T00:33:39.148Z,61.19
2022-12-16T00:36:08.543Z,60.76
2022-12-16T00:38:36.703Z,61.06
2022-12-16T00:41:04.963Z,60.91
2022-12-16T00:43:34.665Z,60.95
2022-12-16T00:46:02.938Z,61.31
2022-12-16T00:48:31.010Z,60.68
2022-12-16T00:50:59.022Z,61.05
2022-12-16T00:53:27.351Z,61.02
2022-12-16T00:56:04.029Z,60.61
2022-12-16T00:58:32.327Z,61.17
2022-12-16T01:01:02.367Z,61.10
2022-12-16T01:03:30.575Z,60.80
2022-12-16T01:05:58.649Z,60.89
2022-12-16T01:08:27.209Z,60.88
2022-12-16T01:10:58.120Z,61.11
2022-12-16T01:13:27.012Z,61.24
2022-12-16T01:15:55.189Z,61.48
2022-12-16T01:18:24.622Z,61.19
2022-12-16T01:20:52.790Z,61.54
2022-12-16T01:23:23.046Z,61.29
2022-12-16T01:25:56.501Z,61.17
2022-12-16T01:28:24.496Z,61.57
2022-12-16T01:31:01.692Z,61.59
2022-12-16T01:33:33.583Z,61.39
2022-12-16T01:36:04.355Z,61.39
2022-12-16T01:38:33.194Z,61.43
2022-12-16T01:41:01.779Z,61.46
2022-12-16T01:43:32.624Z,61.53
2022-12-16T01:46:08.659Z,61.34
2022-12-16T01:48:45.858Z,61.53
2022-12-16T01:51:21.333Z,61.39
2022-12-16T01:53:51.733Z,61.61
2022-12-16T01:56:28.549Z,61.66
2022-12-16T01:58:57.207Z,61.81
2022-12-16T02:01:25.331Z,61.95
2022-12-16T02:03:57.388Z,61.40
2022-12-16T02:06:25.557Z,61.21
2022-12-16T02:08:59.037Z,61.37
2022-12-16T02:11:53.445Z,61.28
2022-12-16T02:14:53.325Z,61.33
2022-12-16T02:17:31.996Z,61.45
2022-12-16T02:20:42.547Z,61.50
2022-12-16T02:24:00.952Z,61.60
2022-12-16T02:27:02.432Z,62.22
2022-12-16T02:30:29.299Z,61.67
2022-12-16T02:33:20.049Z,62.02
2022-12-16T02:35:56.449Z,61.99
2022-12-16T02:38:39.163Z,62.49
2022-12-16T02:41:16.735Z,62.16
2022-12-16T02:43:55.639Z,61.78
2022-12-16T02:46:27.453Z,62.09
2022-12-16T02:48:57.571Z,62.47
2022-12-16T02:51:27.972Z,61.95
2022-12-16T02:53:56.705Z,62.11
2022-12-16T02:56:41.603Z,62.34
2022-12-16T02:59:24.245Z,62.68
2022-12-16T03:01:59.861Z,62.65
2022-12-16T03:04:38.052Z,62.00
2022-12-16T03:07:12.226Z,61.42
2022-12-16T03:09:42.011Z,62.29
2022-12-16T03:12:14.305Z,62.17
2022-12-16T03:14:47.447Z,62.33
2022-12-16T03:17:17.646Z,62.53
2022-12-16T03:19:54.526Z,61.75
2022-12-16T03:22:29.070Z,62.72
2022-12-16T03:24:57.523Z,62.38
2022-12-16T03:27:35.497Z,61.90
2022-12-16T03:30:08.115Z,61.78
2022-12-16T03:32:42.107Z,62.04
2022-12-16T03:35:19.821Z,61.77
2022-12-16T03:37:51.857Z,61.68
2022-12-16T03:40:21.910Z,61.42
2022-12-16T03:42:50.461Z,62.01
2022-12-16T03:45:24.713Z,61.52
2022-12-16T03:47:53.921Z,61.19
2022-12-16T03:50:29.519Z,61.76
2022-12-16T03:52:57.684Z,61.67
2022-12-16T03:55:25.944Z,62.07
2022-12-16T03:57:54.071Z,62.30
2022-12-16T04:00:22.760Z,62.12
2022-12-16T04:02:51.191Z,61.54
2022-12-16T04:05:19.505Z,61.72
2022-12-16T04:07:48.901Z,61.50
2022-12-16T04:10:17.131Z,61.70
2022-12-16T04:13:02.748Z,62.02
2022-12-16T04:15:48.231Z,62.00
2022-12-16T04:18:37.036Z,62.06
2022-12-16T04:21:31.904Z,61.98
2022-12-16T04:24:18.938Z,62.02
2022-12-16T04:27:13.444Z,61.68
2022-12-16T04:29:57.218Z,61.49
2022-12-16T04:32:26.149Z,62.10
2022-12-16T04:34:53.190Z,61.39
2022-12-16T04:37:38.700Z,61.20
2022-12-16T04:40:26.786Z,61.51
2022-12-16T04:43:14.467Z,61.80
2022-12-16T04:45:59.524Z,61.37
2022-12-16T04:48:45.131Z,61.67
2022-12-16T04:51:30.834Z,61.69
2022-12-16T04:54:16.418Z,61.25
2022-12-16T04:56:59.692Z,61.77
2022-12-16T04:59:45.408Z,61.15
2022-12-16T05:02:31.059Z,60.90
2022-12-16T05:05:16.965Z,60.75
2022-12-16T05:08:02.946Z,60.74
2022-12-16T05:10:48.412Z,60.70
2022-12-16T05:13:35.612Z,60.81
2022-12-16T05:16:21.426Z,60.61
2022-12-16T05:19:07.217Z,60.87
2022-12-16T05:21:53.287Z,61.07
2022-12-16T05:24:39.139Z,60.78
2022-12-16T05:27:24.720Z,60.87
2022-12-16T05:30:11.938Z,60.80
2022-12-16T05:32:57.504Z,60.87
2022-12-16T05:35:43.191Z,60.73
2022-12-16T05:38:28.733Z,60.48
2022-12-16T05:41:14.508Z,60.70
2022-12-16T05:44:00.128Z,60.47
2022-12-16T05:46:47.408Z,60.42
2022-12-16T05:49:33.115Z,60.77
2022-12-16T05:52:30.171Z,60.14
2022-12-16T05:55:15.934Z,59.78
2022-12-16T05:58:01.626Z,59.77
2022-12-16T06:00:46.999Z,60.00
2022-12-16T06:03:34.406Z,60.42
2022-12-16T06:06:20.535Z,59.64
2022-12-16T06:09:06.053Z,60.04
2022-12-16T06:11:52.118Z,60.52
2022-12-16T06:14:37.574Z,59.72
2022-12-16T06:17:23.166Z,59.59
2022-12-16T06:20:10.059Z,59.85
2022-12-16T06:22:55.805Z,60.08
2022-12-16T06:25:41.439Z,59.47
2022-12-16T06:28:27.121Z,59.63
2022-12-16T06:31:12.952Z,59.71
2022-12-16T06:34:13.183Z,60.03
2022-12-16T06:37:00.462Z,60.00
2022-12-16T06:39:49.976Z,59.99
2022-12-16T06:42:38.492Z,60.00
2022-12-16T06:45:28.909Z,59.39
2022-12-16T06:48:17.341Z,59.92
2022-12-16T06:51:03.639Z,60.60
2022-12-16T06:53:50.889Z,60.28
2022-12-16T06:56:36.589Z,59.97
2022-12-16T06:59:22.295Z,59.86
2022-12-16T07:02:08.269Z,60.54
2022-12-16T07:04:54.029Z,60.03
2022-12-16T07:07:39.896Z,60.31
2022-12-16T07:10:28.287Z,60.19
2022-12-16T07:13:17.105Z,60.81
2022-12-16T07:16:03.607Z,60.35
2022-12-16T07:18:49.277Z,60.62
2022-12-16T07:21:35.111Z,60.30
2022-12-16T07:24:20.724Z,59.57
2022-12-16T07:27:08.072Z,60.22
2022-12-16T07:29:53.908Z,59.76
2022-12-16T07:32:39.660Z,59.91
2022-12-16T07:35:25.867Z,59.02
2022-12-16T07:38:11.364Z,59.17
2022-12-16T07:40:57.944Z,59.01
2022-12-16T07:43:44.985Z,58.65
2022-12-16T07:46:32.712Z,59.35
2022-12-16T07:49:18.583Z,58.53
2022-12-16T07:52:04.283Z,58.54
2022-12-16T07:54:50.097Z,58.48
2022-12-16T07:57:36.752Z,58.55
2022-12-16T08:00:25.365Z,58.68
2022-12-16T08:03:14.874Z,58.54
2022-12-16T08:06:00.790Z,58.99
2022-12-16T08:08:46.436Z,58.66
2022-12-16T08:11:32.282Z,59.05
2022-12-16T08:14:20.849Z,58.97
2022-12-16T08:17:08.080Z,58.58
2022-12-16T08:19:54.287Z,58.31
2022-12-16T08:22:40.171Z,58.36
2022-12-16T08:25:27.623Z,58.69
2022-12-16T08:28:13.393Z,58.28
2022-12-16T08:30:59.140Z,58.44
2022-12-16T08:33:51.712Z,58.23
2022-12-16T08:36:38.496Z,58.19
2022-12-16T08:39:20.516Z,58.23
2022-12-16T08:42:06.265Z,58.48
2022-12-16T08:44:51.939Z,58.41
2022-12-16T08:47:38.656Z,57.58
2022-12-16T08:50:27.042Z,57.76
2022-12-16T08:53:12.435Z,57.74
2022-12-16T08:55:58.122Z,57.47
2022-12-16T08:58:43.896Z,57.80
2022-12-16T09:01:29.420Z,57.28
2022-12-16T09:04:15.534Z,57.83
2022-12-16T09:07:02.704Z,57.70
2022-12-16T09:09:48.562Z,57.17
2022-12-16T09:12:40.250Z,57.16
2022-12-16T09:15:27.268Z,56.85
2022-12-16T09:18:14.037Z,57.02
2022-12-16T09:21:00.198Z,56.90
2022-12-16T09:23:47.362Z,57.20
2022-12-16T09:26:33.259Z,57.12
2022-12-16T09:29:19.005Z,57.17
2022-12-16T09:32:04.599Z,56.37
2022-12-16T09:34:50.453Z,56.17
2022-12-16T09:37:36.015Z,56.59
2022-12-16T09:40:24.984Z,56.48
2022-12-16T09:43:19.852Z,56.04
2022-12-16T09:46:14.468Z,56.01
2022-12-16T09:49:07.545Z,56.60
2022-12-16T09:51:55.481Z,55.66
2022-12-16T09:54:45.890Z,56.08
2022-12-16T09:57:34.806Z,56.20
2022-12-16T10:00:25.050Z,56.50
2022-12-16T10:03:11.543Z,56.13
2022-12-16T10:06:10.561Z,55.23
2022-12-16T10:09:11.732Z,55.56
2022-12-16T10:12:07.606Z,55.55
2022-12-16T10:15:04.049Z,55.30
2022-12-16T10:17:49.536Z,55.43
2022-12-16T10:20:48.896Z,55.46
2022-12-16T10:23:41.356Z,54.96
2022-12-16T10:26:36.246Z,54.87
2022-12-16T10:29:31.513Z,53.99
2022-12-16T10:32:18.650Z,54.74
2022-12-16T10:35:04.609Z,54.90
2022-12-16T10:37:55.523Z,54.74
2022-12-16T10:40:44.686Z,54.92
2022-12-16T10:43:37.130Z,54.63
2022-12-16T10:46:31.213Z,54.01
2022-12-16T10:49:18.382Z,54.10
2022-12-16T10:52:08.963Z,53.57
2022-12-16T10:55:01.397Z,54.15
2022-12-16T10:58:04.437Z,53.76
2022-12-16T11:01:01.533Z,54.05
2022-12-16T11:03:50.433Z,53.78
2022-12-16T11:06:41.644Z,54.11
2022-12-16T11:09:41.393Z,54.41
2022-12-16T11:12:40.566Z,54.44
2022-12-16T11:15:45.590Z,54.52
2022-12-16T11:18:33.354Z,54.53
2022-12-16T11:21:34.058Z,54.15
2022-12-16T11:24:34.522Z,54.74
2022-12-16T11:27:23.145Z,54.65
2022-12-16T11:30:11.956Z,54.75
2022-12-16T11:33:02.359Z,54.80
2022-12-16T11:35:52.049Z,54.32
2022-12-16T11:38:43.518Z,54.31
2022-12-16T11:41:42.797Z,54.48
2022-12-16T11:44:37.477Z,54.24
2022-12-16T11:47:34.293Z,54.17
2022-12-16T11:50:20.386Z,54.13
2022-12-16T11:53:14.927Z,54.21
2022-12-16T11:56:11.242Z,54.42
2022-12-16T11:59:07.371Z,54.02
2022-12-16T12:02:00.639Z,53.85
2022-12-16T12:04:46.571Z,54.02
2022-12-16T12:07:46.472Z,53.85
2022-12-16T12:11:02.027Z,54.08
2022-12-16T12:14:10.316Z,53.65
2022-12-16T12:17:09.791Z,54.03
2022-12-16T12:20:11.061Z,54.06
2022-12-16T12:22:58.243Z,54.42
2022-12-16T12:25:53.222Z,54.81
2022-12-16T12:28:53.232Z,54.94
2022-12-16T12:31:55.192Z,55.18
2022-12-16T12:34:48.838Z,55.09
2022-12-16T12:37:43.498Z,55.08
2022-12-16T12:40:48.401Z,54.94
2022-12-16T12:43:50.901Z,55.09
2022-12-16T12:47:02.082Z,54.81
2022-12-16T12:49:55.937Z,55.15
2022-12-16T12:53:12.319Z,54.98
2022-12-16T12:56:18.322Z,54.56
2022-12-16T12:59:05.012Z,53.94
2022-12-16T13:01:55.998Z,54.08
2022-12-16T13:04:47.078Z,53.54
2022-12-16T13:07:33.300Z,52.70
2022-12-16T13:10:51.110Z,52.72
2022-12-16T13:13:51.793Z,52.47
2022-12-16T13:17:26.646Z,52.46
2022-12-16T13:20:16.832Z,52.44
2022-12-16T13:23:04.151Z,53.51
2022-12-16T13:25:59.161Z,53.12
2022-12-16T13:28:50.546Z,53.45
2022-12-16T13:31:36.956Z,53.77
2022-12-16T13:34:38.331Z,53.15
2022-12-16T13:37:34.706Z,53.05
2022-12-16T13:40:24.813Z,53.00
2022-12-16T13:43:13.344Z,52.62
2022-12-16T13:46:02.413Z,52.44
2022-12-16T13:48:54.561Z,52.63
2022-12-16T13:52:18.998Z,52.86
2022-12-16T13:55:30.426Z,51.82
2022-12-16T13:58:24.665Z,51.99
2022-12-16T14:01:37.347Z,51.47
2022-12-16T14:04:28.629Z,51.88
2022-12-16T14:07:24.589Z,52.05
2022-12-16T14:10:12.683Z,52.19
2022-12-16T14:13:20.534Z,52.44
2022-12-16T14:16:17.315Z,52.33
2022-12-16T14:19:18.703Z,52.08
2022-12-16T14:22:16.533Z,51.96
2022-12-16T14:25:03.773Z,52.42
2022-12-16T14:27:53.679Z,52.34
2022-12-16T14:30:42.517Z,51.98
2022-12-16T14:33:41.048Z,51.72
2022-12-16T14:36:43.697Z,52.41
2022-12-16T14:39:31.934Z,52.16
2022-12-16T14:42:21.115Z,52.34
2022-12-16T14:45:06.832Z,52.21
2022-12-16T14:47:52.653Z,52.23
2022-12-16T14:50:43.987Z,52.44
2022-12-16T14:53:37.701Z,52.51
2022-12-16T14:56:36.316Z,52.91
2022-12-16T14:59:44.142Z,53.00
2022-12-16T15:02:41.963Z,53.14
2022-12-16T15:05:28.479Z,53.54
2022-12-16T15:08:14.227Z,52.77
2022-12-16T15:11:00.535Z,52.65
2022-12-16T15:13:46.830Z,52.52
2022-12-16T15:16:39.798Z,52.39
2022-12-16T15:19:28.281Z,52.31
2022-12-16T15:22:18.892Z,52.34
2022-12-16T15:25:04.623Z,52.49
2022-12-16T15:27:55.060Z,52.70
2022-12-16T15:31:05.527Z,52.71
2022-12-16T15:33:55.119Z,52.37
2022-12-16T15:36:47.516Z,52.57
2022-12-16T15:39:39.774Z,52.79
2022-12-16T15:42:50.257Z,52.99
2022-12-16T15:45:47.455Z,53.56
2022-12-16T15:48:39.513Z,53.27
2022-12-16T15:51:47.187Z,53.24
2022-12-16T15:54:40.352Z,53.23
2022-12-16T15:57:46.369Z,53.26
2022-12-16T16:00:51.202Z,53.19
2022-12-16T16:03:42.651Z,53.32
2022-12-16T16:06:36.584Z,53.50
2022-12-16T16:09:33.132Z,53.44
2022-12-16T16:12:18.759Z,53.63
2022-12-16T16:15:04.463Z,53.66
2022-12-16T16:17:50.258Z,53.82
2022-12-16T16:20:36.886Z,53.96
2022-12-16T16:23:22.924Z,53.63
2022-12-16T16:26:24.803Z,54.10
2022-12-16T16:29:10.428Z,54.44
2022-12-16T16:32:03.607Z,54.04
2022-12-16T16:38:00.655Z,53.51
2022-12-16T16:40:52.617Z,54.27
2022-12-16T16:43:48.385Z,54.33
2022-12-16T16:46:49.319Z,54.31
2022-12-16T16:49:41.676Z,54.74
2022-12-16T16:52:33.256Z,54.83
2022-12-16T16:55:19.253Z,54.92
2022-12-16T16:58:05.166Z,54.98
2022-12-16T17:00:52.238Z,54.76
2022-12-16T17:03:38.727Z,55.15
2022-12-16T17:06:25.330Z,55.61
2022-12-16T17:09:11.237Z,55.32
2022-12-16T17:11:57.281Z,54.91
2022-12-16T17:14:43.199Z,55.26
2022-12-16T17:17:30.069Z,55.24
2022-12-16T17:20:15.751Z,55.10
2022-12-16T17:23:01.682Z,54.95
2022-12-16T17:25:47.489Z,54.76
2022-12-16T17:28:33.085Z,54.92
2022-12-16T17:31:18.979Z,55.31
2022-12-16T17:34:05.972Z,54.97
2022-12-16T17:36:51.574Z,55.35
2022-12-16T17:39:37.427Z,55.44
2022-12-16T17:42:23.322Z,56.30
2022-12-16T17:45:08.944Z,55.26
2022-12-16T17:47:54.890Z,55.79
2022-12-16T17:50:42.050Z,55.91
2022-12-16T17:53:27.648Z,56.13
2022-12-16T17:56:13.498Z,55.35
2022-12-16T17:58:59.164Z,54.12
2022-12-16T18:01:44.765Z,52.37
2022-12-16T18:04:30.438Z,51.53
2022-12-16T18:07:17.277Z,50.33
2022-12-16T18:10:02.878Z,50.43
2022-12-16T18:12:50.448Z,49.37
2022-12-16T18:15:36.082Z,49.90
2022-12-16T18:18:22.068Z,50.73
2022-12-16T18:21:07.813Z,51.22
2022-12-16T18:23:55.105Z,52.02
2022-12-16T18:26:40.904Z,52.88
2022-12-16T18:29:26.610Z,53.04
2022-12-16T18:32:12.569Z,53.60
2022-12-16T18:34:58.365Z,54.02
2022-12-16T18:37:44.335Z,54.09
2022-12-16T18:40:31.469Z,54.60
2022-12-16T18:43:17.484Z,54.93
2022-12-16T18:46:09.506Z,54.80
2022-12-16T18:48:55.560Z,55.04
2022-12-16T18:51:41.330Z,55.51
2022-12-16T18:54:27.122Z,55.18
2022-12-16T18:57:14.168Z,55.87
2022-12-16T18:59:59.804Z,55.27
2022-12-16T19:02:45.559Z,55.96
2022-12-16T19:08:41.507Z,55.28
2022-12-16T19:11:27.173Z,55.87
2022-12-16T19:14:22.594Z,55.56
2022-12-16T19:17:16.938Z,55.79
2022-12-16T19:20:02.795Z,55.56
2022-12-16T19:22:48.295Z,56.39
2022-12-16T19:25:34.282Z,56.40
2022-12-16T19:28:26.369Z,55.74
2022-12-16T19:31:16.442Z,55.96
2022-12-16T19:34:04.985Z,56.50
2022-12-16T19:36:50.878Z,56.26
2022-12-16T19:39:37.678Z,56.69
2022-12-16T19:42:23.742Z,56.67
2022-12-16T19:45:09.504Z,56.24
2022-12-16T19:47:56.736Z,56.08
2022-12-16T19:50:42.593Z,56.45
2022-12-16T19:53:35.298Z,56.36
2022-12-16T19:56:20.949Z,56.45
2022-12-16T19:59:06.935Z,56.17
2022-12-16T20:01:52.872Z,56.65
2022-12-16T20:04:42.222Z,56.99
2022-12-16T20:07:28.230Z,56.54
2022-12-16T20:10:13.770Z,56.79
2022-12-16T20:12:59.421Z,56.51
2022-12-16T20:15:45.296Z,56.67
2022-12-16T20:18:31.045Z,57.04
2022-12-16T20:21:21.842Z,56.44
2022-12-16T20:24:08.133Z,56.37
2022-12-16T20:26:53.756Z,56.39
2022-12-16T20:29:41.399Z,56.33
2022-12-16T20:32:26.997Z,56.67
2022-12-16T20:35:12.580Z,56.38
2022-12-16T20:37:59.517Z,56.50
2022-12-16T20:40:45.327Z,56.50
2022-12-16T20:43:31.211Z,56.43
2022-12-16T20:46:16.817Z,57.25
2022-12-16T20:49:04.098Z,56.88
2022-12-16T20:51:58.144Z,57.20
2022-12-16T20:54:45.310Z,57.35
2022-12-16T20:57:30.895Z,56.68
2022-12-16T21:00:18.729Z,57.35
2022-12-16T21:03:04.606Z,56.64
2022-12-16T21:05:50.316Z,57.11
2022-12-16T21:08:36.099Z,56.33
2022-12-16T21:11:23.236Z,56.26
2022-12-16T21:14:09.188Z,56.23
2022-12-16T21:16:55.972Z,56.91
2022-12-16T21:19:41.994Z,56.82
2022-12-16T21:22:27.946Z,56.60
2022-12-16T21:25:13.477Z,56.85
2022-12-16T21:28:00.687Z,56.92
2022-12-16T21:30:46.620Z,56.29
2022-12-16T21:33:37.329Z,56.97
2022-12-16T21:36:24.306Z,56.67
2022-12-16T21:39:10.146Z,57.21
2022-12-16T21:41:56.173Z,57.06
2022-12-16T21:44:42.616Z,57.13
2022-12-16T21:47:28.558Z,56.50
2022-12-16T21:50:14.445Z,56.58
2022-12-16T21:53:00.848Z,57.21
2022-12-16T21:55:46.600Z,57.02
2022-12-16T21:58:32.185Z,56.80
2022-12-16T22:01:19.364Z,56.41
2022-12-16T22:04:05.150Z,56.73
2022-12-16T22:06:50.693Z,56.80
2022-12-16T22:09:36.395Z,56.24
2022-12-16T22:12:22.474Z,56.32
2022-12-16T22:15:08.135Z,56.78
2022-12-16T22:17:58.503Z,56.97
2022-12-16T22:20:44.930Z,56.80
2022-12-16T22:23:30.777Z,56.09
2022-12-16T22:26:17.009Z,56.95
2022-12-16T22:29:02.760Z,56.09
2022-12-16T22:31:49.055Z,56.85
2022-12-16T22:34:36.462Z,56.80
2022-12-16T22:37:22.457Z,56.79
2022-12-16T22:40:08.189Z,56.13
2022-12-16T22:42:54.028Z,56.51
2022-12-16T22:45:41.794Z,55.91
2022-12-16T22:48:29.999Z,56.11
2022-12-16T22:51:17.062Z,55.51
2022-12-16T22:54:02.837Z,55.15
2022-12-16T22:56:48.463Z,55.42
2022-12-16T22:59:34.390Z,54.71
2022-12-16T23:05:39.754Z,55.55
2022-12-16T23:08:26.908Z,55.56
2022-12-16T23:11:13.465Z,55.54
2022-12-16T23:14:00.883Z,56.21
2022-12-16T23:16:46.424Z,55.39
2022-12-16T23:19:31.910Z,56.18
2022-12-16T23:22:17.623Z,55.69
2022-12-16T23:25:06.955Z,55.10
2022-12-16T23:27:52.490Z,54.08
2022-12-16T23:30:39.571Z,55.74
2022-12-16T23:33:25.031Z,55.40
2022-12-16T23:36:10.419Z,54.04
2022-12-16T23:38:56.457Z,53.69
2022-12-16T23:41:43.649Z,54.47
2022-12-16T23:44:29.385Z,55.09
2022-12-16T23:47:15.198Z,55.26
2022-12-16T23:50:00.955Z,55.54
2022-12-16T23:52:46.587Z,55.35
2022-12-16T23:55:32.079Z,54.69
2022-12-16T23:58:20.283Z,55.60
